createdAt,value
2023-01-29T00:04:36.817Z,46
2023-01-29T00:09:36.863Z,38
2023-01-29T00:14:36.822Z,35
2023-01-29T00:19:36.826Z,33
2023-01-29T00:24:55.397Z,36
2023-01-29T00:29:55.376Z,31
2023-01-29T00:35:36.789Z,29
2023-01-29T00:40:36.825Z,28
2023-01-29T00:45:36.848Z,25
2023-01-29T00:50:36.819Z,28
2023-01-29T00:55:36.823Z,30
2023-01-29T01:00:55.503Z,31
2023-01-29T01:06:36.792Z,28
2023-01-29T01:11:55.315Z,30
2023-01-29T01:16:55.367Z,31
2023-01-29T01:22:36.781Z,26
2023-01-29T01:27:36.830Z,28
2023-01-29T01:32:55.337Z,33
2023-01-29T01:37:55.349Z,28
2023-01-29T01:43:36.804Z,28
2023-01-29T01:48:55.352Z,27
2023-01-29T01:53:55.323Z,36
2023-01-29T01:59:36.872Z,33
2023-01-29T02:04:55.395Z,31
2023-01-29T02:10:36.790Z,28
2023-01-29T02:15:55.325Z,25
2023-01-29T02:21:36.807Z,25
2023-01-29T02:26:36.826Z,29
2023-01-29T02:31:55.314Z,33
2023-01-29T02:37:36.878Z,33
2023-01-29T02:42:55.327Z,31
2023-01-29T02:48:36.777Z,30
2023-01-29T02:53:36.864Z,25
2023-01-29T02:58:55.320Z,26
2023-01-29T03:03:55.323Z,27
2023-01-29T03:09:36.849Z,27
2023-01-29T03:14:55.309Z,28
2023-01-29T03:19:55.313Z,26
2023-01-29T03:25:36.796Z,24
2023-01-29T03:30:36.798Z,25
2023-01-29T03:35:55.472Z,26
2023-01-29T03:41:36.807Z,29
2023-01-29T03:46:36.781Z,33
2023-01-29T03:51:36.809Z,33
2023-01-29T03:56:55.330Z,37
2023-01-29T04:01:55.334Z,38
2023-01-29T04:07:36.773Z,42
2023-01-29T04:12:36.773Z,34
2023-01-29T04:17:36.782Z,33
2023-01-29T04:22:36.868Z,33
2023-01-29T04:27:55.286Z,31
2023-01-29T04:32:55.328Z,28
2023-01-29T04:37:55.309Z,29
2023-01-29T04:42:55.323Z,32
2023-01-29T04:48:36.785Z,28
2023-01-29T04:53:55.312Z,33
2023-01-29T04:58:55.357Z,33
2023-01-29T05:04:36.792Z,34
2023-01-29T05:09:55.270Z,31
2023-01-29T05:14:55.296Z,36
2023-01-29T05:19:55.311Z,35
2023-01-29T05:25:36.839Z,31
2023-01-29T05:30:55.463Z,29
2023-01-29T05:36:36.788Z,30
2023-01-29T05:41:55.316Z,34
2023-01-29T05:47:36.783Z,29
2023-01-29T05:52:55.263Z,30
2023-01-29T05:57:55.295Z,29
2023-01-29T06:03:36.767Z,32
2023-01-29T06:08:36.775Z,30
2023-01-29T06:13:55.258Z,34
2023-01-29T06:18:55.288Z,29
2023-01-29T06:24:36.781Z,32
2023-01-29T06:29:55.295Z,30
2023-01-29T06:35:36.761Z,31
2023-01-29T06:40:55.334Z,34
2023-01-29T06:46:36.780Z,39
2023-01-29T06:51:55.434Z,45
2023-01-29T06:57:36.739Z,36
2023-01-29T07:02:36.779Z,34
2023-01-29T07:07:55.282Z,38
2023-01-29T07:12:55.291Z,33
2023-01-29T07:18:36.756Z,32
2023-01-29T07:23:36.764Z,33
2023-01-29T07:28:55.275Z,33
2023-01-29T07:34:36.762Z,43
2023-01-29T07:39:55.261Z,47
2023-01-29T07:44:55.279Z,41
2023-01-29T07:50:36.756Z,35
2023-01-29T07:55:36.759Z,42
2023-01-29T08:00:55.318Z,42
2023-01-29T08:05:55.288Z,40
2023-01-29T08:10:55.375Z,44
2023-01-29T08:16:36.930Z,43
2023-01-29T08:21:55.261Z,40
2023-01-29T08:26:55.278Z,40
2023-01-29T08:32:36.742Z,37
2023-01-29T08:37:36.738Z,38
2023-01-29T08:42:55.250Z,40
2023-01-29T08:47:55.287Z,38
2023-01-29T08:53:36.714Z,40
2023-01-29T08:58:36.737Z,35
2023-01-29T09:03:55.261Z,43
2023-01-29T09:09:36.776Z,40
2023-01-29T09:14:36.789Z,41
2023-01-29T09:19:55.224Z,46
2023-01-29T09:24:55.281Z,43
2023-01-29T09:29:55.268Z,43
2023-01-29T09:34:55.294Z,41
2023-01-29T09:40:36.717Z,38
2023-01-29T09:45:36.731Z,41
2023-01-29T09:50:36.776Z,43
2023-01-29T09:55:55.243Z,37
2023-01-29T10:00:55.245Z,40
2023-01-29T10:06:36.716Z,37
2023-01-29T10:11:57.993Z,36
2023-01-29T10:16:55.267Z,35
2023-01-29T10:21:55.253Z,32
2023-01-29T10:27:36.684Z,37
2023-01-29T10:32:36.720Z,30
2023-01-29T10:37:36.774Z,35
2023-01-29T10:42:55.235Z,33
2023-01-29T10:48:36.861Z,30
2023-01-29T10:53:36.732Z,29
2023-01-29T10:58:55.266Z,31
2023-01-29T11:04:36.705Z,28
2023-01-29T11:09:36.734Z,30
2023-01-29T11:14:55.213Z,31
2023-01-29T11:19:55.248Z,28
2023-01-29T11:25:36.719Z,29
2023-01-29T11:30:55.337Z,27
2023-01-29T11:35:55.225Z,24
2023-01-29T11:41:36.692Z,30
2023-01-29T11:46:36.817Z,28
2023-01-29T11:51:55.221Z,22
2023-01-29T11:56:55.237Z,22
2023-01-29T12:02:36.700Z,21
2023-01-29T12:07:55.251Z,19
2023-01-29T12:13:36.677Z,20
2023-01-29T12:18:36.707Z,22
2023-01-29T12:23:36.721Z,21
2023-01-29T12:28:36.714Z,23
2023-01-29T12:33:55.241Z,22
2023-01-29T12:38:55.232Z,20
2023-01-29T12:44:36.766Z,20
2023-01-29T12:49:55.229Z,20
2023-01-29T12:54:55.231Z,21
2023-01-29T12:59:55.323Z,22
2023-01-29T13:05:36.716Z,22
2023-01-29T13:10:55.225Z,26
2023-01-29T13:15:55.235Z,24
2023-01-29T13:20:55.252Z,22
2023-01-29T13:26:36.749Z,22
2023-01-29T13:31:55.278Z,21
2023-01-29T13:37:36.725Z,20
2023-01-29T13:42:55.262Z,22
2023-01-29T13:48:36.704Z,19
2023-01-29T13:53:55.226Z,20
2023-01-29T13:58:55.238Z,19
2023-01-29T14:04:36.686Z,17
2023-01-29T14:09:36.775Z,16
2023-01-29T14:14:55.215Z,14
2023-01-29T14:19:55.223Z,15
2023-01-29T14:25:36.704Z,15
2023-01-29T14:30:55.487Z,16
2023-01-29T14:36:36.688Z,9
2023-01-29T14:41:55.249Z,11
2023-01-29T14:47:36.702Z,12
2023-01-29T14:52:55.213Z,13
2023-01-29T14:58:36.706Z,15
2023-01-29T15:03:36.707Z,15
2023-01-29T15:08:55.199Z,17
2023-01-29T15:13:55.203Z,17
2023-01-29T15:19:36.701Z,16
2023-01-29T15:24:55.221Z,18
2023-01-29T15:29:55.231Z,18
2023-01-29T15:35:36.700Z,17
2023-01-29T15:40:55.260Z,20
2023-01-29T15:46:36.681Z,18
2023-01-29T15:51:36.708Z,18
2023-01-29T15:56:55.214Z,21
2023-01-29T16:01:55.276Z,21
2023-01-29T16:06:55.219Z,21
2023-01-29T16:12:36.657Z,26
2023-01-29T16:17:36.689Z,24
2023-01-29T16:22:55.200Z,22
2023-01-29T16:27:55.198Z,22
2023-01-29T16:32:55.325Z,22
2023-01-29T16:38:36.671Z,22
2023-01-29T16:43:55.238Z,22
2023-01-29T16:49:36.684Z,22
2023-01-29T16:54:36.701Z,21
2023-01-29T16:59:55.233Z,23
2023-01-29T17:05:36.690Z,28
2023-01-29T17:10:36.726Z,21
2023-01-29T17:15:55.234Z,19
2023-01-29T17:20:55.190Z,20
2023-01-29T17:26:36.710Z,21
2023-01-29T17:31:36.790Z,21
2023-01-29T17:36:55.212Z,22
2023-01-29T17:42:36.666Z,24
2023-01-29T17:47:36.672Z,25
2023-01-29T17:52:55.209Z,22
2023-01-29T17:57:55.266Z,21
2023-01-29T18:03:36.740Z,20
2023-01-29T18:08:36.702Z,20
2023-01-29T18:14:36.667Z,18
2023-01-29T18:19:36.690Z,18
2023-01-29T18:24:36.726Z,20
2023-01-29T18:29:55.186Z,19
2023-01-29T18:34:55.195Z,20
2023-01-29T18:40:36.684Z,21
2023-01-29T18:45:55.277Z,21
2023-01-29T18:51:36.740Z,20
2023-01-29T18:57:06.288Z,21
2023-01-29T19:01:55.341Z,20
2023-01-29T19:07:36.652Z,25
2023-01-29T19:12:36.660Z,20
2023-01-29T19:17:55.190Z,22
2023-01-29T19:22:55.209Z,18
2023-01-29T19:27:55.248Z,19
2023-01-29T19:33:36.662Z,22
2023-01-29T19:38:36.665Z,25
2023-01-29T19:43:55.167Z,24
2023-01-29T19:48:55.189Z,21
2023-01-29T19:53:55.211Z,24
2023-01-29T19:59:36.652Z,21
2023-01-29T20:04:55.175Z,21
2023-01-29T20:09:55.161Z,21
2023-01-29T20:14:55.208Z,22
2023-01-29T20:20:36.661Z,21
2023-01-29T20:25:36.718Z,21
2023-01-29T20:30:55.229Z,23
2023-01-29T20:36:36.663Z,22
2023-01-29T20:41:36.666Z,24
2023-01-29T20:46:55.202Z,24
2023-01-29T20:52:36.711Z,20
2023-01-29T20:58:06.116Z,20
2023-01-29T21:03:36.634Z,20
2023-01-29T21:08:36.625Z,22
2023-01-29T21:13:36.643Z,21
2023-01-29T21:18:36.659Z,23
2023-01-29T21:23:36.665Z,22
2023-01-29T21:28:36.799Z,22
2023-01-29T21:33:55.182Z,19
2023-01-29T21:39:36.657Z,20
2023-01-29T21:44:55.175Z,19
2023-01-29T21:49:55.177Z,20
2023-01-29T21:55:36.693Z,21
2023-01-29T22:00:55.234Z,21
2023-01-29T22:05:55.184Z,20
2023-01-29T22:11:36.633Z,20
2023-01-29T22:16:55.207Z,20
2023-01-29T22:21:55.158Z,20
2023-01-29T22:26:55.180Z,21
2023-01-29T22:31:55.183Z,19
2023-01-29T22:37:36.659Z,21
2023-01-29T22:42:55.146Z,19
2023-01-29T22:47:55.202Z,20
2023-01-29T22:52:55.192Z,19
2023-01-29T22:57:55.181Z,21
2023-01-29T23:02:55.320Z,20
2023-01-29T23:08:36.641Z,21
2023-01-29T23:13:55.168Z,27
2023-01-29T23:19:36.661Z,21
2023-01-29T23:24:36.678Z,22
2023-01-29T23:29:36.707Z,20
2023-01-29T23:34:55.159Z,20
2023-01-29T23:40:36.639Z,20
2023-01-29T23:45:55.159Z,18
2023-01-29T23:51:36.775Z,20
2023-01-29T23:56:55.183Z,19
